sensor_id;sensor_type;location;lat;lon;timestamp;pressure;altitude;pressure_sealevel;temperature;humidity
12054;BME280;5638;50.860;4.698;2022-12-10T00:01:20;100427.69;;;2.78;nan
12054;BME280;5638;50.860;4.698;2022-12-10T00:03:46;100422.56;;;2.78;nan
12054;BME280;5638;50.860;4.698;2022-12-10T00:06:19;100433.69;;;2.82;nan
12054;BME280;5638;50.860;4.698;2022-12-10T00:08:46;100429.38;;;2.78;nan
12054;BME280;5638;50.860;4.698;2022-12-10T00:11:15;100414.06;;;2.78;nan
12054;BME280;5638;50.860;4.698;2022-12-10T00:13:42;100415.63;;;2.65;nan
12054;BME280;5638;50.860;4.698;2022-12-10T00:16:12;100418.94;;;2.58;nan
12054;BME280;5638;50.860;4.698;2022-12-10T00:18:39;100433.25;;;2.43;nan
12054;BME280;5638;50.860;4.698;2022-12-10T00:21:12;100422.31;;;2.52;nan
12054;BME280;5638;50.860;4.698;2022-12-10T00:23:39;100427.63;;;2.73;nan
12054;BME280;5638;50.860;4.698;2022-12-10T00:26:09;100409.44;;;2.46;nan
12054;BME280;5638;50.860;4.698;2022-12-10T00:28:36;100412.75;;;2.36;nan
12054;BME280;5638;50.860;4.698;2022-12-10T00:31:08;100430.88;;;2.57;nan
12054;BME280;5638;50.860;4.698;2022-12-10T00:33:35;100434.50;;;2.78;nan
12054;BME280;5638;50.860;4.698;2022-12-10T00:36:24;100446.53;;;2.89;nan
12054;BME280;5638;50.860;4.698;2022-12-10T00:38:51;100442.28;;;2.90;nan
12054;BME280;5638;50.860;4.698;2022-12-10T00:41:18;100443.94;;;2.85;nan
12054;BME280;5638;50.860;4.698;2022-12-10T00:43:44;100446.66;;;3.03;nan
12054;BME280;5638;50.860;4.698;2022-12-10T00:46:13;100437.25;;;2.97;nan
12054;BME280;5638;50.860;4.698;2022-12-10T00:48:40;100437.94;;;2.81;nan
12054;BME280;5638;50.860;4.698;2022-12-10T00:51:18;100447.44;;;2.94;nan
12054;BME280;5638;50.860;4.698;2022-12-10T00:53:47;100442.25;;;2.85;nan
12054;BME280;5638;50.860;4.698;2022-12-10T00:56:16;100437.03;;;2.78;nan
12054;BME280;5638;50.860;4.698;2022-12-10T00:58:42;100440.53;;;2.86;nan
12054;BME280;5638;50.860;4.698;2022-12-10T01:01:23;100427.59;;;2.70;nan
12054;BME280;5638;50.860;4.698;2022-12-10T01:03:53;100441.31;;;2.77;nan
12054;BME280;5638;50.860;4.698;2022-12-10T01:06:22;100440.47;;;2.78;nan
12054;BME280;5638;50.860;4.698;2022-12-10T01:08:52;100413.84;;;2.56;nan
12054;BME280;5638;50.860;4.698;2022-12-10T01:11:21;100436.06;;;2.65;nan
12054;BME280;5638;50.860;4.698;2022-12-10T01:13:48;100447.19;;;2.71;nan
12054;BME280;5638;50.860;4.698;2022-12-10T01:16:18;100447.97;;;2.64;nan
12054;BME280;5638;50.860;4.698;2022-12-10T01:18:45;100433.06;;;2.28;nan
12054;BME280;5638;50.860;4.698;2022-12-10T01:21:15;100444.28;;;2.39;nan
12054;BME280;5638;50.860;4.698;2022-12-10T01:23:43;100447.59;;;2.32;nan
12054;BME280;5638;50.860;4.698;2022-12-10T01:26:17;100451.88;;;2.36;nan
12054;BME280;5638;50.860;4.698;2022-12-10T01:28:43;100448.47;;;2.36;nan
12054;BME280;5638;50.860;4.698;2022-12-10T01:31:16;100455.19;;;2.26;nan
12054;BME280;5638;50.860;4.698;2022-12-10T01:33:42;100448.97;;;2.09;nan
12054;BME280;5638;50.860;4.698;2022-12-10T01:36:18;100457.56;;;2.15;nan
12054;BME280;5638;50.860;4.698;2022-12-10T01:38:45;100459.44;;;2.29;nan
12054;BME280;5638;50.860;4.698;2022-12-10T01:41:22;100467.34;;;2.48;nan
12054;BME280;5638;50.860;4.698;2022-12-10T01:46:45;100473.31;;;2.49;nan
12054;BME280;5638;50.860;4.698;2022-12-10T01:49:19;100474.97;;;2.44;nan
12054;BME280;5638;50.860;4.698;2022-12-10T01:51:54;100463.91;;;2.45;nan
12054;BME280;5638;50.860;4.698;2022-12-10T01:54:31;100475.94;;;2.54;nan
12054;BME280;5638;50.860;4.698;2022-12-10T01:57:03;100478.31;;;2.41;nan
12054;BME280;5638;50.860;4.698;2022-12-10T01:59:32;100486.94;;;2.49;nan
12054;BME280;5638;50.860;4.698;2022-12-10T02:02:22;100475.97;;;2.55;nan
12054;BME280;5638;50.860;4.698;2022-12-10T02:13:56;100448.34;;;2.25;nan
12054;BME280;5638;50.860;4.698;2022-12-10T02:16:34;100478.31;;;2.41;nan
12054;BME280;5638;50.860;4.698;2022-12-10T02:19:45;100482.53;;;2.38;nan
12054;BME280;5638;50.860;4.698;2022-12-10T02:22:09;100481.56;;;2.28;nan
12054;BME280;5638;50.860;4.698;2022-12-10T02:24:36;100474.00;;;2.34;nan
12054;BME280;5638;50.860;4.698;2022-12-10T02:27:31;100480.00;;;1.79;nan
12054;BME280;5638;50.860;4.698;2022-12-10T02:30:01;100479.41;;;1.96;nan
12054;BME280;5638;50.860;4.698;2022-12-10T02:32:36;100453.88;;;1.95;nan
12054;BME280;5638;50.860;4.698;2022-12-10T02:35:11;100479.69;;;2.15;nan
12054;BME280;5638;50.860;4.698;2022-12-10T02:38:14;100483.25;;;2.26;nan
12054;BME280;5638;50.860;4.698;2022-12-10T02:40:50;100474.88;;;2.36;nan
12054;BME280;5638;50.860;4.698;2022-12-10T02:43:19;100470.66;;;2.40;nan
12054;BME280;5638;50.860;4.698;2022-12-10T02:45:46;100468.09;;;2.38;nan
12054;BME280;5638;50.860;4.698;2022-12-10T02:48:13;100470.72;;;2.46;nan
12054;BME280;5638;50.860;4.698;2022-12-10T02:50:39;100469.13;;;2.54;nan
12054;BME280;5638;50.860;4.698;2022-12-10T02:53:05;100468.34;;;2.61;nan
12054;BME280;5638;50.860;4.698;2022-12-10T02:56:01;100465.81;;;2.60;nan
12054;BME280;5638;50.860;4.698;2022-12-10T02:58:58;100475.06;;;2.52;nan
12054;BME280;5638;50.860;4.698;2022-12-10T03:04:07;100463.59;;;2.20;nan
12054;BME280;5638;50.860;4.698;2022-12-10T03:06:43;100474.53;;;2.10;nan
12054;BME280;5638;50.860;4.698;2022-12-10T03:09:24;100476.91;;;1.98;nan
12054;BME280;5638;50.860;4.698;2022-12-10T03:12:02;100461.66;;;2.04;nan
12054;BME280;5638;50.860;4.698;2022-12-10T03:14:34;100466.56;;;1.90;nan
12054;BME280;5638;50.860;4.698;2022-12-10T03:17:03;100467.50;;;1.95;nan
12054;BME280;5638;50.860;4.698;2022-12-10T03:19:38;100473.78;;;2.19;nan
12054;BME280;5638;50.860;4.698;2022-12-10T03:22:08;100468.44;;;2.02;nan
12054;BME280;5638;50.860;4.698;2022-12-10T03:24:36;100478.56;;;1.96;nan
12054;BME280;5638;50.860;4.698;2022-12-10T03:27:06;100471.13;;;2.10;nan
12054;BME280;5638;50.860;4.698;2022-12-10T03:29:49;100485.03;;;2.33;nan
12054;BME280;5638;50.860;4.698;2022-12-10T03:32:20;100489.00;;;2.13;nan
12054;BME280;5638;50.860;4.698;2022-12-10T03:34:51;100494.25;;;2.22;nan
12054;BME280;5638;50.860;4.698;2022-12-10T03:37:20;100490.25;;;2.42;nan
12054;BME280;5638;50.860;4.698;2022-12-10T03:39:46;100485.13;;;2.42;nan
12054;BME280;5638;50.860;4.698;2022-12-10T03:42:12;100495.44;;;2.50;nan
12054;BME280;5638;50.860;4.698;2022-12-10T03:44:39;100483.47;;;2.44;nan
12054;BME280;5638;50.860;4.698;2022-12-10T03:47:09;100490.00;;;2.24;nan
12054;BME280;5638;50.860;4.698;2022-12-10T03:49:36;100480.75;;;2.32;nan
12054;BME280;5638;50.860;4.698;2022-12-10T03:52:03;100489.31;;;2.34;nan
12054;BME280;5638;50.860;4.698;2022-12-10T03:54:29;100484.28;;;2.42;nan
12054;BME280;5638;50.860;4.698;2022-12-10T03:56:54;100492.91;;;2.50;nan
12054;BME280;5638;50.860;4.698;2022-12-10T03:59:21;100493.88;;;2.60;nan
12054;BME280;5638;50.860;4.698;2022-12-10T04:01:47;100493.78;;;2.52;nan
12054;BME280;5638;50.860;4.698;2022-12-10T04:04:13;100483.47;;;2.44;nan
12054;BME280;5638;50.860;4.698;2022-12-10T04:06:41;100477.63;;;2.53;nan
12054;BME280;5638;50.860;4.698;2022-12-10T04:09:11;100477.69;;;2.58;nan
12054;BME280;5638;50.860;4.698;2022-12-10T04:11:37;100480.84;;;2.38;nan
12054;BME280;5638;50.860;4.698;2022-12-10T04:14:04;100473.22;;;2.40;nan
12054;BME280;5638;50.860;4.698;2022-12-10T04:16:48;100479.19;;;2.42;nan
12054;BME280;5638;50.860;4.698;2022-12-10T04:19:17;100486.03;;;2.44;nan
12054;BME280;5638;50.860;4.698;2022-12-10T04:21:45;100492.84;;;2.44;nan
12054;BME280;5638;50.860;4.698;2022-12-10T04:24:33;100501.28;;;2.38;nan
12054;BME280;5638;50.860;4.698;2022-12-10T04:27:31;100497.84;;;2.38;nan
12054;BME280;5638;50.860;4.698;2022-12-10T04:29:59;100502.88;;;2.32;nan
12054;BME280;5638;50.860;4.698;2022-12-10T04:32:27;100481.50;;;2.22;nan
12054;BME280;5638;50.860;4.698;2022-12-10T04:34:54;100486.66;;;2.28;nan
12054;BME280;5638;50.860;4.698;2022-12-10T04:37:21;100491.09;;;2.41;nan
12054;BME280;5638;50.860;4.698;2022-12-10T04:39:49;100496.09;;;2.34;nan
12054;BME280;5638;50.860;4.698;2022-12-10T04:42:16;100507.19;;;2.36;nan
12054;BME280;5638;50.860;4.698;2022-12-10T04:44:42;100493.41;;;2.23;nan
12054;BME280;5638;50.860;4.698;2022-12-10T04:47:09;100482.34;;;2.24;nan
12054;BME280;5638;50.860;4.698;2022-12-10T04:49:36;100504.69;;;2.42;nan
12054;BME280;5638;50.860;4.698;2022-12-10T04:52:03;100508.88;;;2.35;nan
12054;BME280;5638;50.860;4.698;2022-12-10T04:54:30;100514.69;;;2.23;nan
12054;BME280;5638;50.860;4.698;2022-12-10T04:56:56;100507.81;;;2.19;nan
12054;BME280;5638;50.860;4.698;2022-12-10T04:59:23;100501.00;;;2.20;nan
12054;BME280;5638;50.860;4.698;2022-12-10T05:01:49;100483.00;;;2.09;nan
12054;BME280;5638;50.860;4.698;2022-12-10T05:04:17;100498.50;;;2.23;nan
12054;BME280;5638;50.860;4.698;2022-12-10T05:06:44;100502.81;;;2.27;nan
12054;BME280;5638;50.860;4.698;2022-12-10T05:09:13;100497.69;;;2.25;nan
12054;BME280;5638;50.860;4.698;2022-12-10T05:11:39;100487.41;;;2.21;nan
12054;BME280;5638;50.860;4.698;2022-12-10T05:14:06;100495.16;;;2.27;nan
12054;BME280;5638;50.860;4.698;2022-12-10T05:16:33;100496.88;;;2.28;nan
12054;BME280;5638;50.860;4.698;2022-12-10T05:19:00;100500.44;;;2.39;nan
12054;BME280;5638;50.860;4.698;2022-12-10T05:21:28;100490.06;;;2.27;nan
12054;BME280;5638;50.860;4.698;2022-12-10T05:24:16;100498.56;;;2.29;nan
12054;BME280;5638;50.860;4.698;2022-12-10T05:26:43;100509.69;;;2.33;nan
12054;BME280;5638;50.860;4.698;2022-12-10T05:29:09;100517.34;;;2.31;nan
12054;BME280;5638;50.860;4.698;2022-12-10T05:31:35;100523.91;;;2.14;nan
12054;BME280;5638;50.860;4.698;2022-12-10T05:34:02;100515.34;;;2.12;nan
12054;BME280;5638;50.860;4.698;2022-12-10T05:36:31;100528.03;;;2.06;nan
12054;BME280;5638;50.860;4.698;2022-12-10T05:38:58;100510.91;;;2.00;nan
12054;BME280;5638;50.860;4.698;2022-12-10T05:41:27;100519.59;;;2.11;nan
12054;BME280;5638;50.860;4.698;2022-12-10T05:43:55;100514.63;;;2.20;nan
12054;BME280;5638;50.860;4.698;2022-12-10T05:46:29;100517.03;;;2.10;nan
12054;BME280;5638;50.860;4.698;2022-12-10T05:48:55;100520.38;;;2.07;nan
12054;BME280;5638;50.860;4.698;2022-12-10T05:51:26;100511.56;;;1.85;nan
12054;BME280;5638;50.860;4.698;2022-12-10T05:53:53;100514.66;;;1.66;nan
12054;BME280;5638;50.860;4.698;2022-12-10T05:56:23;100516.47;;;1.74;nan
12054;BME280;5638;50.860;4.698;2022-12-10T05:58:54;100509.53;;;1.66;nan
12054;BME280;5638;50.860;4.698;2022-12-10T06:01:24;100512.09;;;1.66;nan
12054;BME280;5638;50.860;4.698;2022-12-10T06:03:51;100512.66;;;1.46;nan
12054;BME280;5638;50.860;4.698;2022-12-10T06:06:30;100511.69;;;1.94;nan
12054;BME280;5638;50.860;4.698;2022-12-10T06:08:57;100514.25;;;1.93;nan
12054;BME280;5638;50.860;4.698;2022-12-10T06:11:24;100522.34;;;1.67;nan
12054;BME280;5638;50.860;4.698;2022-12-10T06:13:54;100520.16;;;1.40;nan
12054;BME280;5638;50.860;4.698;2022-12-10T06:16:20;100515.22;;;1.49;nan
12054;BME280;5638;50.860;4.698;2022-12-10T06:18:46;100527.59;;;1.77;nan
12054;BME280;5638;50.860;4.698;2022-12-10T06:21:17;100526.81;;;1.82;nan
12054;BME280;5638;50.860;4.698;2022-12-10T06:23:45;100525.31;;;1.96;nan
12054;BME280;5638;50.860;4.698;2022-12-10T06:26:16;100527.19;;;2.07;nan
12054;BME280;5638;50.860;4.698;2022-12-10T06:28:45;100525.09;;;1.81;nan
12054;BME280;5638;50.860;4.698;2022-12-10T06:31:13;100525.28;;;1.93;nan
12054;BME280;5638;50.860;4.698;2022-12-10T06:33:40;100538.06;;;1.96;nan
12054;BME280;5638;50.860;4.698;2022-12-10T06:36:10;100538.56;;;1.74;nan
12054;BME280;5638;50.860;4.698;2022-12-10T06:38:38;100540.25;;;1.72;nan
12054;BME280;5638;50.860;4.698;2022-12-10T06:41:07;100543.63;;;1.71;nan
12054;BME280;5638;50.860;4.698;2022-12-10T06:43:34;100547.00;;;1.70;nan
12054;BME280;5638;50.860;4.698;2022-12-10T06:46:09;100548.69;;;1.68;nan
12054;BME280;5638;50.860;4.698;2022-12-10T06:48:36;100554.00;;;1.80;nan
12054;BME280;5638;50.860;4.698;2022-12-10T06:51:04;100549.69;;;1.78;nan
12054;BME280;5638;50.860;4.698;2022-12-10T06:53:31;100560.88;;;1.87;nan
12054;BME280;5638;50.860;4.698;2022-12-10T06:55:59;100558.47;;;1.96;nan
12054;BME280;5638;50.860;4.698;2022-12-10T06:58:28;100557.88;;;2.10;nan
12054;BME280;5638;50.860;4.698;2022-12-10T07:03:30;100548.31;;;1.98;nan
12054;BME280;5638;50.860;4.698;2022-12-10T07:06:00;100550.75;;;1.90;nan
12054;BME280;5638;50.860;4.698;2022-12-10T07:08:26;100534.91;;;1.58;nan
12054;BME280;5638;50.860;4.698;2022-12-10T07:10:52;100552.44;;;1.88;nan
12054;BME280;5638;50.860;4.698;2022-12-10T07:13:18;100559.09;;;1.80;nan
12054;BME280;5638;50.860;4.698;2022-12-10T07:15:44;100551.31;;;1.74;nan
12054;BME280;5638;50.860;4.698;2022-12-10T07:18:09;100511.25;;;1.67;nan
12054;BME280;5638;50.860;4.698;2022-12-10T07:20:36;100532.75;;;1.81;nan
12054;BME280;5638;50.860;4.698;2022-12-10T07:23:02;100554.47;;;2.09;nan
12054;BME280;5638;50.860;4.698;2022-12-10T07:25:28;100541.53;;;2.00;nan
12054;BME280;5638;50.860;4.698;2022-12-10T07:27:54;100573.91;;;2.03;nan
12054;BME280;5638;50.860;4.698;2022-12-10T07:30:20;100550.03;;;1.99;nan
12054;BME280;5638;50.860;4.698;2022-12-10T07:32:46;100573.06;;;2.04;nan
12054;BME280;5638;50.860;4.698;2022-12-10T07:35:12;100563.44;;;1.86;nan
12054;BME280;5638;50.860;4.698;2022-12-10T07:37:37;100579.38;;;1.74;nan
12054;BME280;5638;50.860;4.698;2022-12-10T07:40:04;100579.00;;;1.51;nan
12054;BME280;5638;50.860;4.698;2022-12-10T07:42:30;100584.53;;;1.77;nan
12054;BME280;5638;50.860;4.698;2022-12-10T07:44:56;100579.28;;;1.68;nan
12054;BME280;5638;50.860;4.698;2022-12-10T07:47:22;100588.16;;;1.91;nan
12054;BME280;5638;50.860;4.698;2022-12-10T07:49:48;100584.56;;;1.79;nan
12054;BME280;5638;50.860;4.698;2022-12-10T07:52:13;100577.75;;;1.79;nan
12054;BME280;5638;50.860;4.698;2022-12-10T07:54:39;100589.91;;;1.92;nan
12054;BME280;5638;50.860;4.698;2022-12-10T07:57:05;100579.66;;;1.89;nan
12054;BME280;5638;50.860;4.698;2022-12-10T07:59:31;100594.56;;;2.18;nan
12054;BME280;5638;50.860;4.698;2022-12-10T08:01:57;100601.13;;;2.04;nan
12054;BME280;5638;50.860;4.698;2022-12-10T08:04:23;100582.16;;;1.88;nan
12054;BME280;5638;50.860;4.698;2022-12-10T08:06:49;100593.13;;;1.82;nan
12054;BME280;5638;50.860;4.698;2022-12-10T08:09:15;100592.91;;;1.70;nan
12054;BME280;5638;50.860;4.698;2022-12-10T08:11:40;100595.66;;;1.81;nan
12054;BME280;5638;50.860;4.698;2022-12-10T08:14:06;100604.94;;;1.77;nan
12054;BME280;5638;50.860;4.698;2022-12-10T08:16:32;100604.16;;;1.81;nan
12054;BME280;5638;50.860;4.698;2022-12-10T08:19:00;100616.34;;;1.99;nan
12054;BME280;5638;50.860;4.698;2022-12-10T08:21:30;100615.41;;;1.92;nan
12054;BME280;5638;50.860;4.698;2022-12-10T08:23:57;100604.38;;;1.95;nan
12054;BME280;5638;50.860;4.698;2022-12-10T08:26:27;100624.03;;;2.00;nan
12054;BME280;5638;50.860;4.698;2022-12-10T08:28:54;100627.47;;;2.03;nan
12054;BME280;5638;50.860;4.698;2022-12-10T08:31:23;100630.75;;;1.95;nan
12054;BME280;5638;50.860;4.698;2022-12-10T08:33:50;100624.72;;;1.92;nan
12054;BME280;5638;50.860;4.698;2022-12-10T08:36:17;100629.09;;;1.97;nan
12054;BME280;5638;50.860;4.698;2022-12-10T08:38:44;100630.81;;;2.00;nan
12054;BME280;5638;50.860;4.698;2022-12-10T08:41:18;100628.91;;;1.87;nan
12054;BME280;5638;50.860;4.698;2022-12-10T08:43:48;100633.91;;;1.81;nan
12054;BME280;5638;50.860;4.698;2022-12-10T08:46:16;100625.19;;;1.68;nan
12054;BME280;5638;50.860;4.698;2022-12-10T08:48:43;100638.31;;;1.89;nan
12054;BME280;5638;50.860;4.698;2022-12-10T08:51:14;100649.50;;;1.97;nan
12054;BME280;5638;50.860;4.698;2022-12-10T08:53:40;100633.78;;;1.73;nan
12054;BME280;5638;50.860;4.698;2022-12-10T08:56:06;100646.91;;;1.49;nan
12054;BME280;5638;50.860;4.698;2022-12-10T08:58:33;100643.34;;;1.86;nan
12054;BME280;5638;50.860;4.698;2022-12-10T09:01:05;100646.25;;;2.06;nan
12054;BME280;5638;50.860;4.698;2022-12-10T09:03:31;100647.09;;;2.05;nan
12054;BME280;5638;50.860;4.698;2022-12-10T09:06:06;100644.50;;;2.04;nan
12054;BME280;5638;50.860;4.698;2022-12-10T09:08:33;100638.59;;;2.06;nan
12054;BME280;5638;50.860;4.698;2022-12-10T09:11:09;100644.03;;;2.28;nan
12054;BME280;5638;50.860;4.698;2022-12-10T09:13:35;100646.88;;;2.44;nan
12054;BME280;5638;50.860;4.698;2022-12-10T09:16:01;100644.97;;;2.31;nan
12054;BME280;5638;50.860;4.698;2022-12-10T09:18:27;100653.41;;;2.27;nan
12054;BME280;5638;50.860;4.698;2022-12-10T09:20:53;100645.41;;;2.06;nan
12054;BME280;5638;50.860;4.698;2022-12-10T09:23:19;100651.44;;;2.11;nan
12054;BME280;5638;50.860;4.698;2022-12-10T09:25:45;100651.44;;;2.11;nan
12054;BME280;5638;50.860;4.698;2022-12-10T09:28:11;100652.22;;;2.08;nan
12054;BME280;5638;50.860;4.698;2022-12-10T09:30:37;100651.94;;;1.91;nan
12054;BME280;5638;50.860;4.698;2022-12-10T09:33:03;100662.91;;;1.86;nan
12054;BME280;5638;50.860;4.698;2022-12-10T09:35:29;100671.31;;;1.80;nan
12054;BME280;5638;50.860;4.698;2022-12-10T09:37:54;100664.91;;;2.04;nan
12054;BME280;5638;50.860;4.698;2022-12-10T09:40:45;100678.22;;;1.87;nan
12054;BME280;5638;50.860;4.698;2022-12-10T09:46:37;100688.94;;;1.69;nan
12054;BME280;5638;50.860;4.698;2022-12-10T09:49:33;100691.81;;;1.86;nan
12054;BME280;5638;50.860;4.698;2022-12-10T09:52:06;100684.47;;;2.03;nan
12054;BME280;5638;50.860;4.698;2022-12-10T09:54:45;100671.97;;;2.18;nan
12054;BME280;5638;50.860;4.698;2022-12-10T09:57:29;100682.53;;;1.90;nan
12054;BME280;5638;50.860;4.698;2022-12-10T10:00:00;100674.03;;;1.91;nan
12054;BME280;5638;50.860;4.698;2022-12-10T10:02:32;100676.28;;;1.74;nan
12054;BME280;5638;50.860;4.698;2022-12-10T10:07:31;100674.31;;;2.06;nan
12054;BME280;5638;50.860;4.698;2022-12-10T10:10:27;100681.44;;;2.25;nan
12054;BME280;5638;50.860;4.698;2022-12-10T10:15:42;100689.41;;;2.45;nan
12054;BME280;5638;50.860;4.698;2022-12-10T10:18:20;100685.50;;;2.66;nan
12054;BME280;5638;50.860;4.698;2022-12-10T10:20:48;100698.31;;;2.69;nan
12054;BME280;5638;50.860;4.698;2022-12-10T10:23:16;100703.03;;;2.44;nan
12054;BME280;5638;50.860;4.698;2022-12-10T10:25:43;100697.84;;;2.40;nan
12054;BME280;5638;50.860;4.698;2022-12-10T10:28:18;100689.53;;;2.53;nan
12054;BME280;5638;50.860;4.698;2022-12-10T10:30:44;100693.16;;;2.66;nan
12054;BME280;5638;50.860;4.698;2022-12-10T10:33:13;100692.75;;;2.41;nan
12054;BME280;5638;50.860;4.698;2022-12-10T10:35:55;100696.06;;;2.34;nan
12054;BME280;5638;50.860;4.698;2022-12-10T10:38:27;100692.81;;;2.46;nan
12054;BME280;5638;50.860;4.698;2022-12-10T10:40:57;100677.38;;;2.37;nan
12054;BME280;5638;50.860;4.698;2022-12-10T10:43:41;100683.47;;;2.45;nan
12054;BME280;5638;50.860;4.698;2022-12-10T10:46:21;100671.94;;;2.17;nan
12054;BME280;5638;50.860;4.698;2022-12-10T10:48:48;100684.16;;;2.35;nan
12054;BME280;5638;50.860;4.698;2022-12-10T10:51:15;100683.13;;;2.25;nan
12054;BME280;5638;50.860;4.698;2022-12-10T10:53:48;100664.19;;;2.12;nan
12054;BME280;5638;50.860;4.698;2022-12-10T10:56:27;100681.41;;;2.24;nan
12054;BME280;5638;50.860;4.698;2022-12-10T10:59:30;100690.69;;;2.19;nan
12054;BME280;5638;50.860;4.698;2022-12-10T11:02:23;100691.97;;;2.45;nan
12054;BME280;5638;50.860;4.698;2022-12-10T11:04:57;100678.44;;;2.49;nan
12054;BME280;5638;50.860;4.698;2022-12-10T11:07:35;100686.47;;;2.75;nan
12054;BME280;5638;50.860;4.698;2022-12-10T11:10:04;100682.66;;;2.47;nan
12054;BME280;5638;50.860;4.698;2022-12-10T11:12:41;100677.88;;;2.70;nan
12054;BME280;5638;50.860;4.698;2022-12-10T11:17:54;100678.31;;;2.99;nan
12054;BME280;5638;50.860;4.698;2022-12-10T11:20:33;100675.63;;;2.90;nan
12054;BME280;5638;50.860;4.698;2022-12-10T11:23:08;100690.34;;;3.07;nan
12054;BME280;5638;50.860;4.698;2022-12-10T11:26:15;100675.91;;;3.13;nan
12054;BME280;5638;50.860;4.698;2022-12-10T11:37:17;100672.44;;;3.08;nan
12054;BME280;5638;50.860;4.698;2022-12-10T11:42:50;100666.53;;;3.11;nan
12054;BME280;5638;50.860;4.698;2022-12-10T11:50:52;100662.44;;;3.22;nan
12054;BME280;5638;50.860;4.698;2022-12-10T11:56:30;100660.25;;;2.86;nan
12054;BME280;5638;50.860;4.698;2022-12-10T12:13:40;100662.06;;;2.96;nan
12054;BME280;5638;50.860;4.698;2022-12-10T12:16:23;100662.00;;;2.91;nan
12054;BME280;5638;50.860;4.698;2022-12-10T12:19:19;100664.09;;;3.18;nan
12054;BME280;5638;50.860;4.698;2022-12-10T12:21:49;100664.66;;;2.97;nan
12054;BME280;5638;50.860;4.698;2022-12-10T12:24:40;100672.56;;;3.17;nan
12054;BME280;5638;50.860;4.698;2022-12-10T12:27:24;100667.56;;;3.23;nan
12054;BME280;5638;50.860;4.698;2022-12-10T12:30:05;100673.78;;;3.45;nan
12054;BME280;5638;50.860;4.698;2022-12-10T12:33:16;100669.69;;;3.60;nan
12054;BME280;5638;50.860;4.698;2022-12-10T12:35:57;100658.50;;;3.52;nan
12054;BME280;5638;50.860;4.698;2022-12-10T12:45:01;100661.97;;;3.57;nan
12054;BME280;5638;50.860;4.698;2022-12-10T12:47:53;100667.09;;;3.57;nan
12054;BME280;5638;50.860;4.698;2022-12-10T12:50:59;100674.53;;;3.37;nan
12054;BME280;5638;50.860;4.698;2022-12-10T12:53:26;100672.84;;;3.39;nan
12054;BME280;5638;50.860;4.698;2022-12-10T13:04:32;100683.25;;;3.54;nan
12054;BME280;5638;50.860;4.698;2022-12-10T13:07:30;100686.69;;;3.56;nan
12054;BME280;5638;50.860;4.698;2022-12-10T13:10:23;100687.50;;;3.55;nan
12054;BME280;5638;50.860;4.698;2022-12-10T13:13:07;100686.69;;;3.58;nan
12054;BME280;5638;50.860;4.698;2022-12-10T13:15:38;100684.91;;;3.49;nan
12054;BME280;5638;50.860;4.698;2022-12-10T13:20:50;100695.03;;;3.41;nan
12054;BME280;5638;50.860;4.698;2022-12-10T13:28:47;100683.09;;;3.39;nan
12054;BME280;5638;50.860;4.698;2022-12-10T13:34:30;100700.00;;;3.29;nan
12054;BME280;5638;50.860;4.698;2022-12-10T13:37:14;100693.34;;;3.42;nan
12054;BME280;5638;50.860;4.698;2022-12-10T13:40:15;100696.13;;;3.62;nan
12054;BME280;5638;50.860;4.698;2022-12-10T13:46:27;100701.47;;;3.83;nan
12054;BME280;5638;50.860;4.698;2022-12-10T13:48:59;100706.94;;;3.39;nan
12054;BME280;5638;50.860;4.698;2022-12-10T13:51:39;100704.59;;;3.58;nan
12054;BME280;5638;50.860;4.698;2022-12-10T13:57:47;100705.19;;;3.35;nan
12054;BME280;5638;50.860;4.698;2022-12-10T14:00:23;100702.84;;;3.52;nan
12054;BME280;5638;50.860;4.698;2022-12-10T14:05:59;100714.63;;;3.39;nan
12054;BME280;5638;50.860;4.698;2022-12-10T14:08:33;100704.56;;;3.55;nan
12054;BME280;5638;50.860;4.698;2022-12-10T14:11:02;100705.47;;;3.57;nan
12054;BME280;5638;50.860;4.698;2022-12-10T14:13:42;100703.91;;;3.71;nan
12054;BME280;5638;50.860;4.698;2022-12-10T14:16:14;100697.94;;;3.72;nan
12054;BME280;5638;50.860;4.698;2022-12-10T14:18:43;100707.38;;;3.76;nan
12054;BME280;5638;50.860;4.698;2022-12-10T14:21:14;100702.19;;;3.68;nan
12054;BME280;5638;50.860;4.698;2022-12-10T14:23:49;100703.75;;;3.56;nan
12054;BME280;5638;50.860;4.698;2022-12-10T14:26:29;100710.41;;;3.44;nan
12054;BME280;5638;50.860;4.698;2022-12-10T14:29:08;100718.91;;;3.40;nan
12054;BME280;5638;50.860;4.698;2022-12-10T14:31:43;100712.22;;;3.55;nan
12054;BME280;5638;50.860;4.698;2022-12-10T14:34:27;100723.56;;;3.75;nan
12054;BME280;5638;50.860;4.698;2022-12-10T14:36:57;100710.81;;;3.78;nan
12054;BME280;5638;50.860;4.698;2022-12-10T14:39:32;100711.72;;;3.82;nan
12054;BME280;5638;50.860;4.698;2022-12-10T14:42:02;100718.63;;;3.92;nan
12054;BME280;5638;50.860;4.698;2022-12-10T14:44:30;100713.53;;;3.93;nan
12054;BME280;5638;50.860;4.698;2022-12-10T14:47:14;100716.84;;;3.83;nan
12054;BME280;5638;50.860;4.698;2022-12-10T14:49:48;100733.94;;;3.87;nan
12054;BME280;5638;50.860;4.698;2022-12-10T14:52:19;100727.88;;;3.79;nan
12054;BME280;5638;50.860;4.698;2022-12-10T14:54:46;100730.47;;;3.84;nan
12054;BME280;5638;50.860;4.698;2022-12-10T14:57:18;100732.97;;;3.78;nan
12054;BME280;5638;50.860;4.698;2022-12-10T15:00:06;100738.16;;;3.84;nan
12054;BME280;5638;50.860;4.698;2022-12-10T15:02:44;100742.81;;;3.45;nan
12054;BME280;5638;50.860;4.698;2022-12-10T15:05:15;100731.19;;;3.70;nan
12054;BME280;5638;50.860;4.698;2022-12-10T15:07:54;100728.72;;;3.78;nan
12054;BME280;5638;50.860;4.698;2022-12-10T15:10:37;100733.84;;;3.77;nan
12054;BME280;5638;50.860;4.698;2022-12-10T15:13:05;100733.69;;;3.67;nan
12054;BME280;5638;50.860;4.698;2022-12-10T15:15:39;100733.69;;;3.64;nan
12054;BME280;5638;50.860;4.698;2022-12-10T15:21:04;100742.47;;;3.85;nan
12054;BME280;5638;50.860;4.698;2022-12-10T15:23:33;100734.78;;;3.86;nan
12054;BME280;5638;50.860;4.698;2022-12-10T15:26:21;100724.53;;;3.85;nan
12054;BME280;5638;50.860;4.698;2022-12-10T15:28:50;100733.84;;;3.77;nan
12054;BME280;5638;50.860;4.698;2022-12-10T15:34:08;100744.03;;;3.75;nan
12054;BME280;5638;50.860;4.698;2022-12-10T15:36:52;100748.53;;;3.94;nan
12054;BME280;5638;50.860;4.698;2022-12-10T15:39:37;100703.22;;;3.87;nan
12054;BME280;5638;50.860;4.698;2022-12-10T15:42:08;100741.84;;;4.06;nan
12054;BME280;5638;50.860;4.698;2022-12-10T15:44:45;100729.66;;;3.88;nan